Time;durP1;ratioP1;P1;durP2;ratioP2;P2;SDS_P1;SDS_P2;PMS_P1;PMS_P2;Temp;Humidity;BMP_temperature;BMP_pressure;BME280_temperature;BME280_humidity;BME280_pressure;Samples;Min_cycle;Max_cycle;Signal;HPM_P1;HPM_P2
2021/06/06 00:01:44;;;;;;;15.10;8.23;;;19.10;98.30;;;;;;5073141;28;20067;-68
2021/06/06 00:04:16;;;;;;;13.70;8.13;;;19.10;98.60;;;;;;5073086;28;20082;-70
2021/06/06 00:06:43;;;;;;;24.10;9.98;;;19.10;98.80;;;;;;5073085;28;20111;-70
2021/06/06 00:09:15;;;;;;;18.00;9.88;;;18.90;99.20;;;;;;5072962;28;20024;-69
2021/06/06 00:11:53;;;;;;;16.85;9.43;;;18.60;98.60;;;;;;5073042;28;20095;-70
2021/06/06 00:14:27;;;;;;;15.93;9.85;;;18.30;99.00;;;;;;5071679;28;20043;-69
2021/06/06 00:16:56;;;;;;;16.33;9.70;;;18.20;99.70;;;;;;5072974;28;20021;-68
2021/06/06 00:19:23;;;;;;;22.98;10.32;;;18.10;99.90;;;;;;5072886;28;20105;-70
2021/06/06 00:21:50;;;;;;;18.65;9.85;;;18.10;99.90;;;;;;5071587;28;20558;-70
2021/06/06 00:24:18;;;;;;;17.58;9.25;;;18.10;99.90;;;;;;5072644;28;20044;-68
2021/06/06 00:26:45;;;;;;;16.52;10.57;;;18.20;99.90;;;;;;5072861;28;20158;-68
2021/06/06 00:29:11;;;;;;;22.33;9.27;;;18.20;99.90;;;;;;5072403;28;20433;-68
2021/06/06 00:31:37;;;;;;;19.98;9.55;;;;;;;;;;5072866;28;20489;-71
2021/06/06 00:34:04;;;;;;;21.00;9.63;;;;;;;;;;5072460;28;20020;-72
2021/06/06 00:36:30;;;;;;;24.95;9.45;;;;;;;;;;5072728;28;20036;-70
2021/06/06 00:38:56;;;;;;;14.65;9.63;;;;;;;;;;5072718;28;20039;-72
2021/06/06 00:41:25;;;;;;;46.97;11.95;;;17.80;99.30;;;;;;5072374;28;20398;-70
2021/06/06 00:43:51;;;;;;;18.42;10.63;;;17.80;99.50;;;;;;5072681;28;20463;-72
2021/06/06 00:46:20;;;;;;;21.77;8.88;;;17.90;99.50;;;;;;5072354;28;20039;-69
2021/06/06 00:48:47;;;;;;;15.32;9.00;;;18.00;99.80;;;;;;5071318;28;20107;-70
2021/06/06 00:51:37;;;;;;;14.68;9.15;;;18.00;99.20;;;;;;5072479;28;20035;-70
2021/06/06 00:54:41;;;;;;;16.17;9.55;;;18.00;98.90;;;;;;5075114;28;20040;-73
2021/06/06 00:57:14;;;;;;;11.50;8.32;;;18.00;99.70;;;;;;4994546;28;20073;-70
2021/06/06 00:59:44;;;;;;;15.57;8.20;;;17.90;98.80;;;;;;4978196;28;20483;-70
2021/06/06 01:02:10;;;;;;;12.20;7.90;;;17.80;98.70;;;;;;4994610;28;20034;-73
2021/06/06 01:04:37;;;;;;;13.57;7.70;;;17.90;98.50;;;;;;4978083;28;20458;-71
2021/06/06 01:07:04;;;;;;;16.00;7.53;;;17.90;98.60;;;;;;4994461;28;20034;-72
2021/06/06 01:09:30;;;;;;;13.52;7.93;;;17.90;98.80;;;;;;4994584;28;20058;-71
2021/06/06 01:12:20;;;;;;;12.13;7.72;;;17.90;99.00;;;;;;4978067;28;20494;-69
2021/06/06 01:15:02;;;;;;;18.00;7.90;;;17.90;98.90;;;;;;4977913;28;20034;-73
2021/06/06 01:17:51;;;;;;;10.70;7.05;;;17.80;98.80;;;;;;4994161;28;20368;-71
2021/06/06 01:20:35;;;;;;;11.85;7.65;;;17.80;99.00;;;;;;4994142;28;20138;-71
2021/06/06 01:23:19;;;;;;;12.60;6.60;;;17.80;99.10;;;;;;4994256;28;20030;-70
2021/06/06 01:25:48;;;;;;;14.35;7.00;;;17.80;99.00;;;;;;4994215;28;20073;-68
2021/06/06 01:28:19;;;;;;;12.13;7.47;;;17.70;99.30;;;;;;4994082;28;20498;-72
2021/06/06 01:30:48;;;;;;;13.07;7.40;;;17.70;99.50;;;;;;4994066;28;20045;-72
2021/06/06 01:33:23;;;;;;;11.77;7.90;;;17.60;99.30;;;;;;5055548;28;20044;-68
2021/06/06 01:35:57;;;;;;;11.52;7.50;;;17.50;99.60;;;;;;5075706;28;20120;-71
2021/06/06 01:38:41;;;;;;;14.73;7.47;;;17.40;99.90;;;;;;5076998;28;20039;-69
2021/06/06 01:41:16;;;;;;;14.35;7.90;;;17.40;99.90;;;;;;5077320;28;20036;-69
2021/06/06 01:43:47;;;;;;;10.82;7.75;;;17.50;99.80;;;;;;5077042;28;20024;-69
2021/06/06 01:46:17;;;;;;;13.30;8.13;;;17.50;99.60;;;;;;5076533;28;20028;-69
2021/06/06 01:48:44;;;;;;;13.43;8.38;;;17.50;99.60;;;;;;5076910;28;20115;-70
2021/06/06 01:51:20;;;;;;;13.73;7.43;;;17.50;99.90;;;;;;5075549;28;20440;-68
2021/06/06 01:53:49;;;;;;;12.63;7.45;;;17.50;99.80;;;;;;5076900;28;20099;-71
2021/06/06 01:56:24;;;;;;;11.15;6.75;;;17.50;99.70;;;;;;5076634;28;20048;-70
2021/06/06 01:58:55;;;;;;;14.95;7.97;;;17.40;99.70;;;;;;5074225;28;20496;-70
2021/06/06 02:01:23;;;;;;;13.20;7.57;;;17.20;99.90;;;;;;5075317;28;20029;-72
2021/06/06 02:03:51;;;;;;;11.52;7.65;;;17.20;99.90;;;;;;5074919;28;20046;-71
2021/06/06 02:06:21;;;;;;;10.60;7.70;;;17.10;99.90;;;;;;5073487;28;20031;-73
2021/06/06 02:08:47;;;;;;;14.38;7.43;;;17.10;99.90;;;;;;5075087;28;20032;-72
2021/06/06 02:11:28;;;;;;;10.93;7.45;;;17.20;99.90;;;;;;5074722;28;20091;-70
2021/06/06 02:14:04;;;;;;;32.03;8.38;;;17.20;99.90;;;;;;5075041;28;20058;-70
2021/06/06 02:16:35;;;;;;;12.43;7.38;;;17.20;99.90;;;;;;5075000;28;20025;-70
2021/06/06 02:19:01;;;;;;;15.32;8.02;;;17.20;99.90;;;;;;5074919;28;20025;-69
2021/06/06 02:21:27;;;;;;;11.20;7.82;;;17.20;99.90;;;;;;5074854;28;20028;-69
2021/06/06 02:23:53;;;;;;;16.75;8.10;;;17.20;99.90;;;;;;5074453;28;20463;-70
2021/06/06 02:26:43;;;;;;;14.52;8.32;;;17.10;99.90;;;;;;5074774;28;20043;-70
2021/06/06 02:29:16;;;;;;;12.15;8.25;;;17.10;99.90;;;;;;5073327;28;20062;-70
2021/06/06 02:32:00;;;;;;;12.55;8.75;;;17.10;99.90;;;;;;5074589;28;20036;-70
2021/06/06 02:34:35;;;;;;;12.18;8.50;;;17.10;99.90;;;;;;5074910;28;20035;-69
2021/06/06 02:37:11;;;;;;;17.02;9.80;;;17.00;99.90;;;;;;5073163;28;20090;-68
2021/06/06 02:39:41;;;;;;;16.42;8.95;;;17.00;99.90;;;;;;5073193;28;20437;-71
2021/06/06 02:42:09;;;;;;;17.58;9.25;;;16.90;99.90;;;;;;5074444;28;20086;-70
2021/06/06 02:44:50;;;;;;;13.10;8.88;;;16.90;99.90;;;;;;5073045;28;20033;-74
2021/06/06 02:47:22;;;;;;;12.40;8.93;;;16.90;99.90;;;;;;5073038;28;20032;-72
2021/06/06 02:49:48;;;;;;;;;;;16.90;99.90;;;;;;5073303;28;20028;-71
2021/06/06 02:52:22;;;;;;;10.85;8.23;;;16.90;99.90;;;;;;5074255;28;19909;-69
2021/06/06 02:54:56;;;;;;;15.60;8.50;;;16.70;99.90;;;;;;5074192;28;20032;-71
2021/06/06 02:57:23;;;;;;;15.38;8.82;;;16.60;99.90;;;;;;5074092;28;20089;-70
2021/06/06 02:59:54;;;;;;;15.75;9.90;;;16.40;99.90;;;;;;5073992;28;20032;-70
2021/06/06 03:02:35;;;;;;;16.95;11.10;;;16.40;99.90;;;;;;5074037;28;20059;-71
2021/06/06 03:05:11;;;;;;;20.85;11.60;;;16.30;99.90;;;;;;5073978;28;20017;-72
2021/06/06 03:07:43;;;;;;;13.70;10.20;;;16.20;99.90;;;;;;5074011;28;20024;-71
2021/06/06 03:10:10;;;;;;;11.10;7.78;;;16.30;99.90;;;;;;5072500;28;20032;-69
2021/06/06 03:12:37;;;;;;;12.80;8.10;;;16.40;99.90;;;;;;5073538;28;20037;-72
2021/06/06 03:15:06;;;;;;;15.48;8.70;;;16.40;99.90;;;;;;5073161;28;20017;-70
2021/06/06 03:17:39;;;;;;;14.27;8.07;;;16.60;99.90;;;;;;5073673;28;20485;-71
2021/06/06 03:20:12;;;;;;;12.95;8.07;;;16.60;99.90;;;;;;5072447;28;20028;-70
2021/06/06 03:22:39;;;;;;;14.63;8.30;;;16.70;99.90;;;;;;5073698;28;20534;-69
2021/06/06 03:25:09;;;;;;;14.00;9.20;;;16.60;99.90;;;;;;5073626;28;20055;-72
2021/06/06 03:27:42;;;;;;;19.13;9.80;;;16.60;99.90;;;;;;5073570;28;20036;-71
2021/06/06 03:30:37;;;;;;;15.10;9.35;;;16.60;99.90;;;;;;5073478;28;20056;-71
2021/06/06 03:33:08;;;;;;;17.88;9.27;;;16.70;99.90;;;;;;5073513;28;20024;-72
2021/06/06 03:35:34;;;;;;;15.82;10.18;;;16.70;99.90;;;;;;5073206;28;20519;-71
2021/06/06 03:38:00;;;;;;;17.90;9.88;;;16.70;99.90;;;;;;5073390;28;20052;-72
2021/06/06 03:40:32;;;;;;;15.27;10.25;;;16.70;99.90;;;;;;5073097;28;20542;-72
2021/06/06 03:42:58;;;;;;;17.13;10.13;;;16.70;99.90;;;;;;5073410;28;20051;-72
2021/06/06 03:45:24;;;;;;;16.58;10.70;;;16.80;99.90;;;;;;5073303;28;20032;-73
2021/06/06 03:47:53;;;;;;;18.67;10.85;;;16.90;99.90;;;;;;5073239;28;20035;-70
2021/06/06 03:50:20;;;;;;;18.48;10.55;;;17.10;99.90;;;;;;5073121;28;20028;-71
2021/06/06 03:52:46;;;;;;;12.23;9.00;;;17.20;99.90;;;;;;5071952;28;20025;-72
2021/06/06 03:55:14;;;;;;;19.83;9.68;;;17.30;99.90;;;;;;5072871;28;20181;-73
2021/06/06 03:57:40;;;;;;;15.85;8.98;;;17.40;99.90;;;;;;5071776;28;20025;-71
2021/06/06 04:00:18;;;;;;;17.08;8.70;;;17.40;99.90;;;;;;5071798;28;20036;-70
2021/06/06 04:02:44;;;;;;;17.17;9.95;;;17.40;99.90;;;;;;5073164;28;20055;-71
2021/06/06 04:05:11;;;;;;;14.82;9.38;;;17.50;99.90;;;;;;5073022;28;20024;-71
2021/06/06 04:07:37;;;;;;;21.80;10.18;;;17.50;99.90;;;;;;5071648;28;20040;-71
2021/06/06 04:10:05;;;;;;;20.52;9.38;;;17.50;99.90;;;;;;5072975;28;20032;-71
2021/06/06 04:12:31;;;;;;;18.08;9.63;;;17.60;99.90;;;;;;5073020;28;20484;-71
2021/06/06 04:14:57;;;;;;;14.55;9.43;;;17.70;99.90;;;;;;5072968;28;20024;-72
2021/06/06 04:17:23;;;;;;;13.45;9.75;;;17.80;99.90;;;;;;5073220;28;20020;-71
2021/06/06 04:19:49;;;;;;;19.92;11.02;;;17.90;99.90;;;;;;5071624;28;20046;-71
2021/06/06 04:22:15;;;;;;;24.23;11.43;;;18.00;99.90;;;;;;5072832;28;20342;-74
2021/06/06 04:24:41;;;;;;;19.73;10.75;;;18.00;99.90;;;;;;5072481;28;20045;-71
2021/06/06 04:27:07;;;;;;;17.02;11.13;;;18.00;99.90;;;;;;5074015;28;20027;-70
2021/06/06 04:29:33;;;;;;;21.75;12.07;;;18.10;99.90;;;;;;5076845;28;20033;-69
2021/06/06 04:32:01;;;;;;;17.90;10.85;;;18.10;99.90;;;;;;5076931;28;20041;-72
2021/06/06 04:34:28;;;;;;;19.45;11.10;;;18.30;99.90;;;;;;5075595;28;20115;-72
2021/06/06 04:36:53;;;;;;;16.40;9.93;;;18.50;99.90;;;;;;5076805;28;20028;-70
2021/06/06 04:39:19;;;;;;;16.45;10.23;;;18.70;99.90;;;;;;5076790;28;20041;-71
2021/06/06 04:41:45;;;;;;;15.88;10.02;;;18.80;99.90;;;;;;5075370;28;20029;-70
2021/06/06 04:44:12;;;;;;;17.88;11.45;;;19.00;99.90;;;;;;5076368;28;20025;-70
2021/06/06 04:46:38;;;;;;;22.40;10.98;;;18.90;99.90;;;;;;5075360;28;20025;-70
2021/06/06 04:49:04;;;;;;;19.92;11.07;;;18.80;99.90;;;;;;5076515;28;20386;-69
2021/06/06 04:51:30;;;;;;;17.30;11.77;;;18.60;99.90;;;;;;5076462;28;20085;-71
2021/06/06 04:53:56;;;;;;;22.95;12.13;;;18.60;99.90;;;;;;5076498;28;20426;-70
2021/06/06 04:56:24;;;;;;;17.73;9.23;;;18.60;99.90;;;;;;5076435;28;20021;-70
2021/06/06 04:58:50;;;;;;;14.48;9.70;;;18.50;99.90;;;;;;5076662;28;20067;-71
2021/06/06 05:01:17;;;;;;;17.63;9.20;;;18.60;99.90;;;;;;5074976;28;20036;-71
2021/06/06 05:03:43;;;;;;;14.95;9.57;;;18.60;99.90;;;;;;5076342;28;20074;-70
2021/06/06 05:06:12;;;;;;;15.80;9.60;;;18.60;99.90;;;;;;5074917;28;20032;-71
2021/06/06 05:08:38;;;;;;;16.35;9.70;;;18.70;99.90;;;;;;5076165;28;20025;-70
2021/06/06 05:11:05;;;;;;;14.57;9.35;;;18.70;99.90;;;;;;5076082;28;20033;-71
2021/06/06 05:13:31;;;;;;;15.50;9.02;;;18.90;99.90;;;;;;5076186;28;20111;-69
2021/06/06 05:15:58;;;;;;;12.70;9.68;;;18.70;99.90;;;;;;5074741;28;20481;-69
2021/06/06 05:18:25;;;;;;;14.40;9.95;;;18.60;99.90;;;;;;5076000;28;20021;-70
2021/06/06 05:20:53;;;;;;;21.00;10.10;;;18.70;99.90;;;;;;5074635;28;20082;-71
2021/06/06 05:23:21;;;;;;;13.35;9.40;;;18.70;99.90;;;;;;5075081;28;20078;-69
2021/06/06 05:25:46;;;;;;;21.95;10.15;;;18.70;99.90;;;;;;5075294;28;20020;-69
2021/06/06 05:28:16;;;;;;;12.30;9.98;;;18.80;99.90;;;;;;5075213;28;20032;-71
2021/06/06 05:30:43;;;;;;;13.80;9.95;;;18.80;99.90;;;;;;5074238;28;20358;-71
2021/06/06 05:33:09;;;;;;;12.55;9.38;;;18.90;99.90;;;;;;5074556;28;20043;-70
2021/06/06 05:35:38;;;;;;;15.00;9.95;;;19.00;99.90;;;;;;5075744;28;20032;-70
2021/06/06 05:38:06;;;;;;;12.63;9.75;;;19.10;99.90;;;;;;5073797;28;20025;-70
2021/06/06 05:40:34;;;;;;;15.93;9.18;;;19.20;99.90;;;;;;5074309;28;20039;-73
2021/06/06 05:43:02;;;;;;;13.48;9.57;;;19.10;99.90;;;;;;5074266;28;20111;-70
2021/06/06 05:45:29;;;;;;;11.85;8.63;;;19.00;99.90;;;;;;5075571;28;20174;-72
2021/06/06 05:47:55;;;;;;;16.35;9.48;;;18.90;99.90;;;;;;5075495;28;20032;-72
2021/06/06 05:50:25;;;;;;;10.75;9.20;;;18.80;99.90;;;;;;5074071;28;20028;-70
2021/06/06 05:52:51;;;;;;;10.80;9.57;;;18.70;99.90;;;;;;5075959;28;20114;-69
2021/06/06 05:55:20;;;;;;;13.70;9.00;;;18.80;99.90;;;;;;5074689;28;20029;-72
2021/06/06 05:57:46;;;;;;;13.68;9.55;;;18.70;99.90;;;;;;5073146;28;20047;-69
2021/06/06 06:00:15;;;;;;;12.85;9.52;;;18.60;99.90;;;;;;5073221;28;20119;-70
2021/06/06 06:02:41;;;;;;;13.23;9.23;;;18.50;99.90;;;;;;5075060;28;20064;-70
2021/06/06 06:05:08;;;;;;;10.88;9.77;;;18.40;99.90;;;;;;5074715;28;20029;-69
2021/06/06 06:07:34;;;;;;;13.82;9.45;;;18.40;99.90;;;;;;5073537;28;20090;-70
2021/06/06 06:10:00;;;;;;;12.18;10.63;;;18.40;99.90;;;;;;5073813;28;20028;-70
2021/06/06 06:12:26;;;;;;;15.63;10.70;;;18.30;99.90;;;;;;5073695;28;20037;-72
2021/06/06 06:14:52;;;;;;;12.45;9.90;;;18.30;99.90;;;;;;5073665;28;20116;-71
2021/06/06 06:17:18;;;;;;;16.08;9.93;;;18.30;99.90;;;;;;5074883;28;20103;-70
2021/06/06 06:19:44;;;;;;;14.40;10.50;;;18.40;99.90;;;;;;5074628;28;20028;-70
2021/06/06 06:22:09;;;;;;;12.25;10.27;;;18.50;99.90;;;;;;5074883;28;20441;-71
2021/06/06 06:24:35;;;;;;;15.55;9.70;;;18.60;99.90;;;;;;5072991;28;20139;-70
2021/06/06 06:27:02;;;;;;;13.00;8.57;;;18.70;99.90;;;;;;5074718;28;20036;-71
2021/06/06 06:29:28;;;;;;;10.98;8.88;;;18.90;99.90;;;;;;5074531;28;20032;-70
2021/06/06 06:31:54;;;;;;;12.20;9.43;;;19.00;99.90;;;;;;5074868;28;20028;-72
2021/06/06 06:34:21;;;;;;;13.43;9.15;;;19.20;99.90;;;;;;5073200;28;20119;-72
2021/06/06 06:36:47;;;;;;;13.63;9.60;;;19.20;99.90;;;;;;5073172;28;20035;-71
2021/06/06 06:39:13;;;;;;;13.63;10.88;;;19.10;99.90;;;;;;5073151;28;20043;-69
2021/06/06 06:41:39;;;;;;;13.23;10.52;;;19.00;99.90;;;;;;5073049;28;20111;-70
2021/06/06 06:44:05;;;;;;;15.25;10.20;;;19.10;99.90;;;;;;5074092;28;20099;-73
2021/06/06 06:46:31;;;;;;;18.85;10.43;;;19.10;99.90;;;;;;5072922;28;20107;-71
2021/06/06 06:48:58;;;;;;;13.05;10.05;;;19.20;99.90;;;;;;5072228;28;20569;-70
2021/06/06 06:51:26;;;;;;;12.15;9.88;;;19.20;99.90;;;;;;5073755;28;20035;-72
2021/06/06 06:53:54;;;;;;;18.83;9.98;;;19.40;99.90;;;;;;5074011;28;20020;-71
2021/06/06 06:56:25;;;;;;;13.98;10.77;;;19.50;99.90;;;;;;5074023;28;20067;-74
2021/06/06 06:58:52;;;;;;;12.35;10.27;;;19.60;99.90;;;;;;5074129;28;20479;-71
2021/06/06 07:01:19;;;;;;;17.52;10.88;;;19.50;99.90;;;;;;5073991;28;20032;-71
2021/06/06 07:03:45;;;;;;;15.35;11.00;;;19.60;99.90;;;;;;5072727;28;20206;-72
2021/06/06 07:06:13;;;;;;;14.55;10.63;;;19.70;99.90;;;;;;5073580;28;20025;-74
2021/06/06 07:08:42;;;;;;;16.58;11.32;;;19.80;99.90;;;;;;5072544;28;20024;-72
2021/06/06 07:11:10;;;;;;;11.77;10.52;;;20.00;99.90;;;;;;5073880;28;20139;-70
2021/06/06 07:13:37;;;;;;;9.63;8.63;;;20.10;99.90;;;;;;5072541;28;20043;-71
2021/06/06 07:16:06;;;;;;;10.13;9.07;;;20.70;99.90;;;;;;5072451;28;20059;-72
2021/06/06 07:18:32;;;;;;;9.93;8.23;;;20.80;99.90;;;;;;5073691;28;20108;-71
2021/06/06 07:21:00;;;;;;;12.50;9.15;;;21.00;99.90;;;;;;5072379;28;20050;-71
2021/06/06 07:23:28;;;;;;;13.02;9.23;;;21.10;99.90;;;;;;5073354;28;20052;-71
2021/06/06 07:25:57;;;;;;;9.77;8.77;;;21.30;99.90;;;;;;5071969;28;20028;-71
2021/06/06 07:28:25;;;;;;;10.35;8.60;;;21.30;99.90;;;;;;5072236;28;20461;-72
2021/06/06 07:30:56;;;;;;;13.02;9.05;;;21.20;99.90;;;;;;5072134;28;20024;-71
2021/06/06 07:33:26;;;;;;;17.13;10.40;;;21.10;99.90;;;;;;5073534;28;20063;-70
2021/06/06 07:35:53;;;;;;;13.85;10.05;;;21.50;99.90;;;;;;5073111;28;20419;-70
2021/06/06 07:38:21;;;;;;;12.68;9.20;;;21.60;99.90;;;;;;5072359;28;20039;-70
2021/06/06 07:40:47;;;;;;;12.90;9.15;;;21.90;99.90;;;;;;5071732;28;20032;-71
2021/06/06 07:43:14;;;;;;;10.65;9.10;;;;;;;;;;5073301;28;20032;-71
2021/06/06 07:45:41;;;;;;;12.20;9.05;;;22.50;99.90;;;;;;5072013;28;20350;-71
2021/06/06 07:48:07;;;;;;;11.85;8.48;;;22.40;99.90;;;;;;5073264;28;20444;-71
2021/06/06 07:50:37;;;;;;;9.80;8.55;;;22.70;99.90;;;;;;5073319;28;20028;-71
2021/06/06 07:53:04;;;;;;;8.23;7.43;;;22.80;99.90;;;;;;5071730;28;20381;-71
2021/06/06 07:55:30;;;;;;;8.75;6.50;;;22.90;99.90;;;;;;5071472;28;20024;-72
2021/06/06 07:57:56;;;;;;;9.70;8.75;;;23.10;99.90;;;;;;5073298;28;20043;-70
2021/06/06 08:00:33;;;;;;;7.30;6.60;;;23.40;99.90;;;;;;5071598;28;20086;-71
2021/06/06 08:02:59;;;;;;;9.05;6.65;;;23.60;99.90;;;;;;5072785;28;20477;-71
2021/06/06 08:05:26;;;;;;;5.60;5.10;;;24.30;99.90;;;;;;5073018;28;20043;-71
2021/06/06 08:07:52;;;;;;;6.00;5.40;;;24.50;99.90;;;;;;5073055;28;20024;-70
2021/06/06 08:10:21;;;;;;;5.57;5.07;;;24.60;99.90;;;;;;5073011;28;20043;-70
2021/06/06 08:12:47;;;;;;;5.97;5.13;;;24.60;99.90;;;;;;5071612;28;20029;-70
2021/06/06 08:15:13;;;;;;;6.72;5.20;;;24.70;99.90;;;;;;5072947;28;20029;-69
2021/06/06 08:17:39;;;;;;;5.95;4.95;;;24.70;99.90;;;;;;5073125;28;20039;-72
2021/06/06 08:20:11;;;;;;;8.43;5.00;;;24.70;99.90;;;;;;5073037;28;20032;-70
2021/06/06 08:22:37;;;;;;;5.57;4.78;;;24.80;99.90;;;;;;5071599;28;20028;-71
2021/06/06 08:25:07;;;;;;;6.30;5.22;;;24.80;99.90;;;;;;5072291;28;20465;-70
2021/06/06 08:27:35;;;;;;;8.07;5.63;;;24.70;99.90;;;;;;5072957;28;20021;-71
2021/06/06 08:30:03;;;;;;;5.80;4.80;;;24.80;99.90;;;;;;5072729;28;20480;-72
2021/06/06 08:32:29;;;;;;;8.02;5.22;;;24.70;99.90;;;;;;5072779;28;20086;-71
2021/06/06 08:34:55;;;;;;;5.95;4.90;;;24.70;99.90;;;;;;5072858;28;20024;-71
2021/06/06 08:37:20;;;;;;;7.10;5.97;;;24.80;99.90;;;;;;5072978;28;20020;-71
2021/06/06 08:39:46;;;;;;;10.85;5.55;;;25.10;99.90;;;;;;5072757;28;20035;-71
2021/06/06 08:42:23;;;;;;;6.97;5.70;;;25.50;99.90;;;;;;5072977;28;20105;-70
2021/06/06 08:45:12;;;;;;;6.68;4.70;;;25.60;99.90;;;;;;5072765;28;20032;-71
2021/06/06 08:47:38;;;;;;;6.95;5.50;;;25.70;99.90;;;;;;5071350;28;20025;-70
2021/06/06 08:50:24;;;;;;;7.03;4.97;;;;;;;;;;5071278;28;20028;-70
2021/06/06 08:53:09;;;;;;;10.55;5.10;;;;;;;;;;5071319;28;20021;-73
2021/06/06 08:55:43;;;;;;;5.38;4.88;;;;;;;;;;5072352;28;20056;-70
2021/06/06 08:58:09;;;;;;;7.20;5.20;;;;;;;;;;5072524;28;20554;-71
2021/06/06 09:00:37;;;;;;;7.47;5.28;;;;;;;;;;5071186;28;20534;-69
2021/06/06 09:03:11;;;;;;;5.38;4.40;;;;;;;;;;5072107;28;20108;-72
2021/06/06 09:05:40;;;;;;;6.85;4.50;;;;;;;;;;5070357;28;20124;-70
2021/06/06 09:08:09;;;;;;;5.65;4.80;;;;;;;;;;5072463;28;20020;-69
2021/06/06 09:10:38;;;;;;;4.95;4.10;;;;;;;;;;5071842;28;20043;-71
2021/06/06 09:13:06;;;;;;;4.65;3.95;;;;;;;;;;5072053;28;20016;-71
2021/06/06 09:15:32;;;;;;;6.10;4.13;;;;;;;;;;5075713;28;20052;-72
2021/06/06 09:18:00;;;;;;;7.97;4.05;;;;;;;;;;5074629;28;20027;-69
2021/06/06 09:20:36;;;;;;;5.35;4.10;;;;;;;;;;5075952;28;20078;-71
2021/06/06 09:23:35;;;;;;;5.20;4.18;;;;;;;;;;5075645;28;20066;-70
2021/06/06 09:26:01;;;;;;;6.13;4.38;;;;;;;;;;4994066;28;20173;-70
2021/06/06 09:28:29;;;;;;;4.30;3.85;;;;;;;;;;4994107;28;20541;-71
2021/06/06 09:31:18;;;;;;;6.05;4.03;;;;;;;;;;4993982;28;20042;-72
2021/06/06 09:33:46;;;;;;;9.02;4.70;;;;;;;;;;4993517;28;20039;-69
2021/06/06 09:36:23;;;;;;;4.93;4.43;;;;;;;;;;4993957;28;20082;-72
2021/06/06 09:38:53;;;;;;;4.97;4.47;;;;;;;;;;4993845;28;20072;-70
2021/06/06 09:41:19;;;;;;;6.82;4.45;;;;;;;;;;4994091;28;20109;-71
2021/06/06 09:43:58;;;;;;;6.18;4.55;;;;;;;;;;4993836;28;20471;-71
2021/06/06 09:46:24;;;;;;;7.53;5.00;;;;;;;;;;4977451;28;20414;-70
2021/06/06 09:48:51;;;;;;;8.07;5.35;;;;;;;;;;4993960;28;20118;-70
2021/06/06 09:51:31;;;;;;;9.82;5.72;;;;;;;;;;4993631;28;20034;-70
2021/06/06 09:54:14;;;;;;;6.47;5.55;;;;;;;;;;4977253;28;20514;-71
2021/06/06 09:56:42;;;;;;;8.90;5.85;;;;;;;;;;4977317;28;20027;-72
2021/06/06 09:59:10;;;;;;;6.93;6.13;;;;;;;;;;4993559;28;20037;-71
2021/06/06 10:01:38;;;;;;;7.75;6.13;;;;;;;;;;5024497;28;20508;-72
2021/06/06 10:04:17;;;;;;;9.13;6.80;;;;;;;;;;5075174;28;20029;-72
2021/06/06 10:06:44;;;;;;;14.05;7.82;;;;;;;;;;5075168;28;20051;-72
2021/06/06 10:09:16;;;;;;;9.65;7.47;;;24.00;99.90;;;;;;5075059;28;20556;-71
2021/06/06 10:12:02;;;;;;;8.18;7.30;;;23.90;99.90;;;;;;5073456;28;20111;-74
2021/06/06 10:14:49;;;;;;;10.55;7.28;;;23.40;99.90;;;;;;5074780;28;20480;-72
2021/06/06 10:17:21;;;;;;;13.02;7.63;;;23.10;99.90;;;;;;5075318;28;20033;-73
2021/06/06 10:19:56;;;;;;;8.93;7.00;;;22.80;99.90;;;;;;5074647;28;20036;-72
2021/06/06 10:22:26;;;;;;;14.32;7.97;;;22.70;99.90;;;;;;5074910;28;20031;-73
2021/06/06 10:25:00;;;;;;;15.77;8.57;;;22.60;99.90;;;;;;5074241;28;20040;-71
2021/06/06 10:27:32;;;;;;;13.40;8.10;;;22.40;99.90;;;;;;5073477;28;20091;-71
2021/06/06 10:30:16;;;;;;;13.95;7.72;;;22.30;99.90;;;;;;5074715;28;20032;-71
2021/06/06 10:32:44;;;;;;;9.13;7.00;;;22.40;99.90;;;;;;5073390;28;20082;-71
2021/06/06 10:35:25;;;;;;;10.48;7.35;;;22.40;99.90;;;;;;5073301;28;20089;-71
2021/06/06 10:37:54;;;;;;;16.20;9.57;;;22.40;99.90;;;;;;5073234;28;20492;-72
2021/06/06 10:40:25;;;;;;;9.27;7.50;;;22.40;99.90;;;;;;5074491;28;20028;-71
2021/06/06 10:43:31;;;;;;;9.52;7.32;;;22.30;99.90;;;;;;5074466;28;20032;-72
2021/06/06 10:46:22;;;;;;;14.05;8.63;;;22.40;99.90;;;;;;5074380;28;20037;-71
2021/06/06 10:48:55;;;;;;;11.23;7.85;;;;;;;;;;5074411;28;20029;-71
2021/06/06 10:51:32;;;;;;;11.55;7.55;;;;;;;;;;5074277;28;20190;-72
2021/06/06 10:54:00;;;;;;;10.77;7.65;;;;;;;;;;5073990;28;20357;-71
2021/06/06 10:56:32;;;;;;;10.88;7.85;;;;;;;;;;5072913;28;20355;-71
2021/06/06 10:59:03;;;;;;;9.52;6.95;;;;;;;;;;5072785;28;20024;-70
2021/06/06 11:01:44;;;;;;;9.38;8.15;;;;;;;;;;5074191;28;20402;-72
2021/06/06 11:04:10;;;;;;;11.00;8.80;;;;;;;;;;5074006;28;20028;-72
2021/06/06 11:06:37;;;;;;;12.73;8.68;;;23.30;99.90;;;;;;5074010;28;20048;-72
2021/06/06 11:09:19;;;;;;;11.18;8.80;;;23.40;99.90;;;;;;5073921;28;20024;-71
2021/06/06 11:11:53;;;;;;;;;;;23.60;99.90;;;;;;5073010;28;20025;-72
2021/06/06 11:14:57;;;;;;;10.18;9.20;;;23.80;99.90;;;;;;5072483;28;19912;-72
2021/06/06 11:17:39;;;;;;;15.18;9.20;;;24.00;99.90;;;;;;5069531;28;20044;-73
2021/06/06 11:20:17;;;;;;;9.82;7.65;;;24.30;99.90;;;;;;5073795;28;20039;-72
2021/06/06 11:22:46;;;;;;;10.80;8.70;;;24.60;99.90;;;;;;5073715;28;20032;-72
2021/06/06 11:25:39;;;;;;;14.65;9.18;;;;;;;;;;5053639;28;20210;-71
2021/06/06 11:28:09;;;;;;;10.15;7.65;;;;;;;;;;5053621;28;20469;-72
2021/06/06 11:30:38;;;;;;;8.98;7.95;;;;;;;;;;5052095;28;20098;-71
2021/06/06 11:33:07;;;;;;;8.13;7.30;;;;;;;;;;5053496;28;20032;-72
2021/06/06 11:35:36;;;;;;;9.52;7.72;;;;;;;;;;5035316;28;20053;-72
2021/06/06 11:38:21;;;;;;;9.40;7.78;;;;;;;;;;5053439;28;20027;-71
2021/06/06 11:40:49;;;;;;;7.55;6.78;;;;;;;;;;5053405;28;20025;-73
2021/06/06 11:43:22;;;;;;;8.90;6.80;;;;;;;;;;5053307;28;20404;-70
2021/06/06 11:45:51;;;;;;;7.95;6.97;;;;;;;;;;5052051;28;20028;-73
2021/06/06 11:48:26;;;;;;;10.20;7.45;;;;;;;;;;5053010;28;20567;-72
2021/06/06 11:50:57;;;;;;;11.68;8.48;;;;;;;;;;5052859;28;20599;-73
2021/06/06 11:53:34;;;;;;;10.57;8.17;;;;;;;;;;5053299;28;20029;-72
2021/06/06 11:56:13;;;;;;;10.55;8.05;;;;;;;;;;5053190;28;20250;-74
2021/06/06 11:58:48;;;;;;;9.93;8.20;;;;;;;;;;5053378;28;20059;-71
2021/06/06 12:01:22;;;;;;;9.55;8.18;;;;;;;;;;5051724;28;20032;-70
2021/06/06 12:03:48;;;;;;;9.75;7.65;;;;;;;;;;5053400;28;20020;-72
2021/06/06 12:06:30;;;;;;;12.52;7.03;;;;;;;;;;5053321;28;20021;-71
2021/06/06 12:08:58;;;;;;;7.13;5.57;;;;;;;;;;5053056;28;20108;-72
2021/06/06 12:11:24;;;;;;;7.70;6.10;;;;;;;;;;5051523;28;20029;-72
2021/06/06 12:13:52;;;;;;;7.30;5.70;;;;;;;;;;5052962;28;20120;-72
2021/06/06 12:16:23;;;;;;;8.32;5.07;;;;;;;;;;5053002;28;20021;-71
2021/06/06 12:19:05;;;;;;;8.38;5.45;;;;;;;;;;5051643;28;20025;-72
2021/06/06 12:21:36;;;;;;;6.22;5.63;;;;;;;;;;5051537;28;20033;-72
2021/06/06 12:24:05;;;;;;;6.90;5.05;;;;;;;;;;5052578;28;20115;-72
2021/06/06 12:26:34;;;;;;;8.30;5.45;;;;;;;;;;5052521;28;20485;-71
2021/06/06 12:29:00;;;;;;;7.15;5.43;;;;;;;;;;5052768;28;20469;-71
2021/06/06 12:31:31;;;;;;;7.40;5.53;;;;;;;;;;5052685;28;20135;-72
2021/06/06 12:34:09;;;;;;;5.72;5.05;;;;;;;;;;5052722;28;20026;-71
2021/06/06 12:36:36;;;;;;;7.05;4.43;;;;;;;;;;5051509;28;20100;-72
2021/06/06 12:39:04;;;;;;;5.63;3.97;;;;;;;;;;5051260;28;20021;-71
2021/06/06 12:41:31;;;;;;;5.72;4.57;;;;;;;;;;5051385;28;20040;-72
2021/06/06 12:43:58;;;;;;;9.48;4.78;;;;;;;;;;5052568;28;20079;-72
2021/06/06 12:46:26;;;;;;;6.82;4.50;;;;;;;;;;5050877;28;20032;-70
2021/06/06 12:48:57;;;;;;;7.05;4.38;;;;;;;;;;5054010;28;20079;-71
2021/06/06 12:51:24;;;;;;;;;;;;;;;;;;5056876;28;20072;-72
2021/06/06 12:53:51;;;;;;;7.82;4.57;;;;;;;;;;5056486;28;20384;-72
2021/06/06 12:56:24;;;;;;;6.03;5.03;;;;;;;;;;5056495;28;20032;-72
2021/06/06 12:58:50;;;;;;;5.78;5.18;;;;;;;;;;5056450;28;20029;-71
2021/06/06 13:01:25;;;;;;;7.68;4.95;;;;;;;;;;5056083;28;20029;-72
2021/06/06 13:03:52;;;;;;;8.88;4.70;;;;;;;;;;5054661;28;20029;-72
2021/06/06 13:06:18;;;;;;;8.60;4.70;;;;;;;;;;5056153;28;20055;-71
2021/06/06 13:08:45;;;;;;;5.03;4.50;;;;;;;;;;5056263;28;20056;-73
2021/06/06 13:11:29;;;;;;;6.03;4.85;;;;;;;;;;5053707;28;20079;-72
2021/06/06 13:14:04;;;;;;;8.95;4.45;;;;;;;;;;5055373;28;20323;-71
2021/06/06 13:16:32;;;;;;;5.35;4.60;;;;;;;;;;5054409;28;20359;-72
2021/06/06 13:19:07;;;;;;;6.72;5.65;;;;;;;;;;5056009;28;20488;-72
2021/06/06 13:21:38;;;;;;;5.90;4.82;;;;;;;;;;5054669;28;20024;-72
2021/06/06 13:24:09;;;;;;;5.07;4.55;;;;;;;;;;5055455;28;20084;-72
2021/06/06 13:26:37;;;;;;;8.23;4.40;;;;;;;;;;5055963;28;20029;-73
2021/06/06 13:29:05;;;;;;;6.13;4.35;;;;;;;;;;5055874;28;20505;-73